sensor_id;sensor_type;location;lat;lon;timestamp;P1;durP1;ratioP1;P2;durP2;ratioP2
26908;SDS011;14477;51.038;4.588;2023-03-19T00:02:13;2.10;;;1.50;;
26908;SDS011;14477;51.038;4.588;2023-03-19T00:04:38;2.67;;;1.52;;
26908;SDS011;14477;51.038;4.588;2023-03-19T00:07:04;2.93;;;1.70;;
26908;SDS011;14477;51.038;4.588;2023-03-19T00:09:30;2.72;;;1.70;;
26908;SDS011;14477;51.038;4.588;2023-03-19T00:11:56;2.27;;;1.50;;
26908;SDS011;14477;51.038;4.588;2023-03-19T00:14:22;2.58;;;1.58;;
26908;SDS011;14477;51.038;4.588;2023-03-19T00:16:48;2.55;;;1.65;;
26908;SDS011;14477;51.038;4.588;2023-03-19T00:19:14;1.98;;;1.40;;
26908;SDS011;14477;51.038;4.588;2023-03-19T00:21:40;2.37;;;1.67;;
26908;SDS011;14477;51.038;4.588;2023-03-19T00:24:05;2.20;;;1.70;;
26908;SDS011;14477;51.038;4.588;2023-03-19T00:26:32;2.05;;;1.65;;
26908;SDS011;14477;51.038;4.588;2023-03-19T00:28:59;2.57;;;1.60;;
26908;SDS011;14477;51.038;4.588;2023-03-19T00:31:25;2.50;;;1.50;;
26908;SDS011;14477;51.038;4.588;2023-03-19T00:33:53;2.30;;;1.48;;
26908;SDS011;14477;51.038;4.588;2023-03-19T00:36:21;1.90;;;1.27;;
26908;SDS011;14477;51.038;4.588;2023-03-19T00:38:47;2.50;;;1.55;;
26908;SDS011;14477;51.038;4.588;2023-03-19T00:41:13;3.43;;;1.53;;
26908;SDS011;14477;51.038;4.588;2023-03-19T00:43:41;3.00;;;1.70;;
26908;SDS011;14477;51.038;4.588;2023-03-19T00:46:07;2.80;;;1.73;;
26908;SDS011;14477;51.038;4.588;2023-03-19T00:48:32;3.40;;;1.70;;
26908;SDS011;14477;51.038;4.588;2023-03-19T00:51:02;3.28;;;1.70;;
26908;SDS011;14477;51.038;4.588;2023-03-19T00:53:32;2.63;;;1.65;;
26908;SDS011;14477;51.038;4.588;2023-03-19T00:56:01;2.17;;;1.43;;
26908;SDS011;14477;51.038;4.588;2023-03-19T00:58:27;2.28;;;1.67;;
26908;SDS011;14477;51.038;4.588;2023-03-19T01:00:53;2.25;;;1.65;;
26908;SDS011;14477;51.038;4.588;2023-03-19T01:03:19;2.43;;;1.60;;
26908;SDS011;14477;51.038;4.588;2023-03-19T01:05:48;2.55;;;1.60;;
26908;SDS011;14477;51.038;4.588;2023-03-19T01:08:14;2.70;;;1.50;;
26908;SDS011;14477;51.038;4.588;2023-03-19T01:10:41;2.25;;;1.40;;
26908;SDS011;14477;51.038;4.588;2023-03-19T01:13:07;2.60;;;1.50;;
26908;SDS011;14477;51.038;4.588;2023-03-19T01:15:40;2.30;;;1.63;;
26908;SDS011;14477;51.038;4.588;2023-03-19T01:18:07;2.10;;;1.45;;
26908;SDS011;14477;51.038;4.588;2023-03-19T01:20:34;1.97;;;1.47;;
26908;SDS011;14477;51.038;4.588;2023-03-19T01:23:01;3.42;;;1.90;;
26908;SDS011;14477;51.038;4.588;2023-03-19T01:25:28;2.15;;;1.45;;
26908;SDS011;14477;51.038;4.588;2023-03-19T01:27:54;2.80;;;1.60;;
26908;SDS011;14477;51.038;4.588;2023-03-19T01:30:19;3.20;;;1.50;;
26908;SDS011;14477;51.038;4.588;2023-03-19T01:32:45;2.70;;;1.70;;
26908;SDS011;14477;51.038;4.588;2023-03-19T01:35:11;2.40;;;1.47;;
26908;SDS011;14477;51.038;4.588;2023-03-19T01:37:37;3.20;;;1.63;;
26908;SDS011;14477;51.038;4.588;2023-03-19T01:40:03;2.93;;;1.67;;
26908;SDS011;14477;51.038;4.588;2023-03-19T01:42:30;2.45;;;1.52;;
26908;SDS011;14477;51.038;4.588;2023-03-19T01:44:56;2.17;;;1.60;;
26908;SDS011;14477;51.038;4.588;2023-03-19T01:47:33;2.35;;;1.40;;
26908;SDS011;14477;51.038;4.588;2023-03-19T01:50:02;1.98;;;1.50;;
26908;SDS011;14477;51.038;4.588;2023-03-19T01:52:29;2.20;;;1.53;;
26908;SDS011;14477;51.038;4.588;2023-03-19T01:54:58;2.45;;;1.73;;
26908;SDS011;14477;51.038;4.588;2023-03-19T01:57:26;2.10;;;1.42;;
26908;SDS011;14477;51.038;4.588;2023-03-19T01:59:55;2.40;;;1.90;;
26908;SDS011;14477;51.038;4.588;2023-03-19T02:04:52;3.70;;;1.50;;
26908;SDS011;14477;51.038;4.588;2023-03-19T02:07:31;2.30;;;1.35;;
26908;SDS011;14477;51.038;4.588;2023-03-19T02:09:58;1.98;;;1.45;;
26908;SDS011;14477;51.038;4.588;2023-03-19T02:12:25;2.38;;;1.25;;
26908;SDS011;14477;51.038;4.588;2023-03-19T02:14:51;2.23;;;1.73;;
26908;SDS011;14477;51.038;4.588;2023-03-19T02:17:18;2.03;;;1.60;;
26908;SDS011;14477;51.038;4.588;2023-03-19T02:19:48;2.13;;;1.42;;
26908;SDS011;14477;51.038;4.588;2023-03-19T02:22:22;2.35;;;1.65;;
26908;SDS011;14477;51.038;4.588;2023-03-19T02:24:59;2.00;;;1.48;;
26908;SDS011;14477;51.038;4.588;2023-03-19T02:27:30;1.80;;;1.40;;
26908;SDS011;14477;51.038;4.588;2023-03-19T02:29:56;2.67;;;1.92;;
26908;SDS011;14477;51.038;4.588;2023-03-19T02:32:21;2.07;;;1.50;;
26908;SDS011;14477;51.038;4.588;2023-03-19T02:34:48;2.25;;;1.55;;
26908;SDS011;14477;51.038;4.588;2023-03-19T02:37:21;2.78;;;1.85;;
26908;SDS011;14477;51.038;4.588;2023-03-19T02:39:53;2.40;;;1.70;;
26908;SDS011;14477;51.038;4.588;2023-03-19T02:42:23;2.47;;;1.70;;
26908;SDS011;14477;51.038;4.588;2023-03-19T02:44:51;2.63;;;1.80;;
26908;SDS011;14477;51.038;4.588;2023-03-19T02:47:17;2.80;;;1.80;;
26908;SDS011;14477;51.038;4.588;2023-03-19T02:49:43;3.37;;;2.00;;
26908;SDS011;14477;51.038;4.588;2023-03-19T02:52:08;4.00;;;2.30;;
26908;SDS011;14477;51.038;4.588;2023-03-19T02:54:34;3.53;;;2.23;;
26908;SDS011;14477;51.038;4.588;2023-03-19T02:57:00;3.85;;;2.53;;
26908;SDS011;14477;51.038;4.588;2023-03-19T02:59:26;3.00;;;2.20;;
26908;SDS011;14477;51.038;4.588;2023-03-19T03:01:51;3.65;;;2.40;;
26908;SDS011;14477;51.038;4.588;2023-03-19T03:04:17;3.90;;;2.63;;
26908;SDS011;14477;51.038;4.588;2023-03-19T03:06:43;4.45;;;2.60;;
26908;SDS011;14477;51.038;4.588;2023-03-19T03:09:09;3.50;;;2.38;;
26908;SDS011;14477;51.038;4.588;2023-03-19T03:11:36;3.77;;;2.30;;
26908;SDS011;14477;51.038;4.588;2023-03-19T03:14:02;3.60;;;2.63;;
26908;SDS011;14477;51.038;4.588;2023-03-19T03:16:28;3.75;;;2.45;;
26908;SDS011;14477;51.038;4.588;2023-03-19T03:18:54;4.50;;;2.37;;
26908;SDS011;14477;51.038;4.588;2023-03-19T03:21:20;3.97;;;2.45;;
26908;SDS011;14477;51.038;4.588;2023-03-19T03:23:46;3.90;;;2.70;;
26908;SDS011;14477;51.038;4.588;2023-03-19T03:26:12;3.97;;;2.50;;
26908;SDS011;14477;51.038;4.588;2023-03-19T03:28:38;3.72;;;2.40;;
26908;SDS011;14477;51.038;4.588;2023-03-19T03:31:04;3.13;;;2.13;;
26908;SDS011;14477;51.038;4.588;2023-03-19T03:33:30;3.70;;;2.55;;
26908;SDS011;14477;51.038;4.588;2023-03-19T03:35:57;3.10;;;2.20;;
26908;SDS011;14477;51.038;4.588;2023-03-19T03:38:22;3.72;;;2.30;;
26908;SDS011;14477;51.038;4.588;2023-03-19T03:40:48;3.87;;;2.40;;
26908;SDS011;14477;51.038;4.588;2023-03-19T03:43:16;4.68;;;2.45;;
26908;SDS011;14477;51.038;4.588;2023-03-19T03:45:43;3.38;;;2.35;;
26908;SDS011;14477;51.038;4.588;2023-03-19T03:48:09;3.58;;;2.42;;
26908;SDS011;14477;51.038;4.588;2023-03-19T03:50:35;3.77;;;2.50;;
26908;SDS011;14477;51.038;4.588;2023-03-19T03:53:01;4.53;;;2.50;;
26908;SDS011;14477;51.038;4.588;2023-03-19T03:55:26;3.20;;;2.15;;
26908;SDS011;14477;51.038;4.588;2023-03-19T03:57:52;4.27;;;2.67;;
26908;SDS011;14477;51.038;4.588;2023-03-19T04:00:18;3.45;;;2.40;;
26908;SDS011;14477;51.038;4.588;2023-03-19T04:02:44;4.17;;;2.27;;
26908;SDS011;14477;51.038;4.588;2023-03-19T04:05:10;3.60;;;2.60;;
26908;SDS011;14477;51.038;4.588;2023-03-19T04:07:36;4.78;;;2.70;;
26908;SDS011;14477;51.038;4.588;2023-03-19T04:10:03;4.00;;;2.40;;
26908;SDS011;14477;51.038;4.588;2023-03-19T04:12:29;3.43;;;2.27;;
26908;SDS011;14477;51.038;4.588;2023-03-19T04:14:56;3.55;;;2.45;;
26908;SDS011;14477;51.038;4.588;2023-03-19T04:17:21;3.72;;;2.47;;
26908;SDS011;14477;51.038;4.588;2023-03-19T04:19:47;4.37;;;2.50;;
26908;SDS011;14477;51.038;4.588;2023-03-19T04:22:13;3.83;;;2.67;;
26908;SDS011;14477;51.038;4.588;2023-03-19T04:24:40;3.72;;;2.50;;
26908;SDS011;14477;51.038;4.588;2023-03-19T04:27:06;4.03;;;2.90;;
26908;SDS011;14477;51.038;4.588;2023-03-19T04:29:32;3.93;;;2.73;;
26908;SDS011;14477;51.038;4.588;2023-03-19T04:31:58;4.30;;;2.78;;
26908;SDS011;14477;51.038;4.588;2023-03-19T04:34:23;4.30;;;2.63;;
26908;SDS011;14477;51.038;4.588;2023-03-19T04:36:49;5.05;;;2.80;;
26908;SDS011;14477;51.038;4.588;2023-03-19T04:39:16;3.92;;;2.75;;
26908;SDS011;14477;51.038;4.588;2023-03-19T04:41:42;4.25;;;2.78;;
26908;SDS011;14477;51.038;4.588;2023-03-19T04:44:08;4.57;;;2.87;;
26908;SDS011;14477;51.038;4.588;2023-03-19T04:46:33;4.40;;;2.88;;
26908;SDS011;14477;51.038;4.588;2023-03-19T04:48:59;4.77;;;2.73;;
26908;SDS011;14477;51.038;4.588;2023-03-19T04:51:25;3.90;;;2.53;;
26908;SDS011;14477;51.038;4.588;2023-03-19T04:53:51;4.13;;;2.72;;
26908;SDS011;14477;51.038;4.588;2023-03-19T04:56:17;3.70;;;2.60;;
26908;SDS011;14477;51.038;4.588;2023-03-19T04:58:43;3.95;;;2.60;;
26908;SDS011;14477;51.038;4.588;2023-03-19T05:01:09;4.05;;;2.65;;
26908;SDS011;14477;51.038;4.588;2023-03-19T05:03:35;4.45;;;2.88;;
26908;SDS011;14477;51.038;4.588;2023-03-19T05:06:01;4.57;;;3.07;;
26908;SDS011;14477;51.038;4.588;2023-03-19T05:08:27;5.55;;;3.05;;
26908;SDS011;14477;51.038;4.588;2023-03-19T05:10:53;5.03;;;2.90;;
26908;SDS011;14477;51.038;4.588;2023-03-19T05:13:18;4.25;;;2.58;;
26908;SDS011;14477;51.038;4.588;2023-03-19T05:15:44;4.40;;;2.60;;
26908;SDS011;14477;51.038;4.588;2023-03-19T05:18:10;5.13;;;2.83;;
26908;SDS011;14477;51.038;4.588;2023-03-19T05:20:37;3.88;;;2.50;;
26908;SDS011;14477;51.038;4.588;2023-03-19T05:23:03;4.07;;;2.30;;
26908;SDS011;14477;51.038;4.588;2023-03-19T05:25:29;3.28;;;2.15;;
26908;SDS011;14477;51.038;4.588;2023-03-19T05:27:55;4.40;;;2.40;;
26908;SDS011;14477;51.038;4.588;2023-03-19T05:30:21;4.17;;;2.37;;
26908;SDS011;14477;51.038;4.588;2023-03-19T05:32:47;3.78;;;2.38;;
26908;SDS011;14477;51.038;4.588;2023-03-19T05:35:14;4.68;;;2.67;;
26908;SDS011;14477;51.038;4.588;2023-03-19T05:37:41;4.13;;;2.42;;
26908;SDS011;14477;51.038;4.588;2023-03-19T05:40:07;4.37;;;2.60;;
26908;SDS011;14477;51.038;4.588;2023-03-19T05:42:33;4.03;;;2.63;;
26908;SDS011;14477;51.038;4.588;2023-03-19T05:44:59;4.65;;;2.88;;
26908;SDS011;14477;51.038;4.588;2023-03-19T05:47:25;4.20;;;2.50;;
26908;SDS011;14477;51.038;4.588;2023-03-19T05:49:51;3.55;;;2.38;;
26908;SDS011;14477;51.038;4.588;2023-03-19T05:52:16;3.97;;;2.43;;
26908;SDS011;14477;51.038;4.588;2023-03-19T05:54:42;4.60;;;2.53;;
26908;SDS011;14477;51.038;4.588;2023-03-19T05:57:08;4.93;;;2.60;;
26908;SDS011;14477;51.038;4.588;2023-03-19T05:59:33;4.15;;;2.53;;
26908;SDS011;14477;51.038;4.588;2023-03-19T06:01:59;4.70;;;2.70;;
26908;SDS011;14477;51.038;4.588;2023-03-19T06:04:25;3.10;;;2.20;;
26908;SDS011;14477;51.038;4.588;2023-03-19T06:06:51;4.55;;;2.50;;
26908;SDS011;14477;51.038;4.588;2023-03-19T06:09:17;3.77;;;2.33;;
26908;SDS011;14477;51.038;4.588;2023-03-19T06:11:43;4.38;;;2.47;;
26908;SDS011;14477;51.038;4.588;2023-03-19T06:14:08;4.67;;;2.60;;
26908;SDS011;14477;51.038;4.588;2023-03-19T06:16:34;4.53;;;2.27;;
26908;SDS011;14477;51.038;4.588;2023-03-19T06:19:00;4.78;;;2.28;;
26908;SDS011;14477;51.038;4.588;2023-03-19T06:21:26;5.00;;;2.60;;
26908;SDS011;14477;51.038;4.588;2023-03-19T06:23:54;4.10;;;2.30;;
26908;SDS011;14477;51.038;4.588;2023-03-19T06:26:20;4.95;;;2.58;;
26908;SDS011;14477;51.038;4.588;2023-03-19T06:28:46;4.63;;;2.80;;
26908;SDS011;14477;51.038;4.588;2023-03-19T06:31:12;6.03;;;2.73;;
26908;SDS011;14477;51.038;4.588;2023-03-19T06:33:38;4.18;;;2.50;;
26908;SDS011;14477;51.038;4.588;2023-03-19T06:36:04;4.95;;;2.42;;
26908;SDS011;14477;51.038;4.588;2023-03-19T06:38:30;4.53;;;2.47;;
26908;SDS011;14477;51.038;4.588;2023-03-19T06:40:56;4.30;;;2.28;;
26908;SDS011;14477;51.038;4.588;2023-03-19T06:43:21;4.30;;;2.30;;
26908;SDS011;14477;51.038;4.588;2023-03-19T06:45:47;4.53;;;2.13;;
26908;SDS011;14477;51.038;4.588;2023-03-19T06:48:13;4.10;;;2.17;;
26908;SDS011;14477;51.038;4.588;2023-03-19T06:50:39;3.75;;;2.20;;
26908;SDS011;14477;51.038;4.588;2023-03-19T06:53:06;3.85;;;2.30;;
26908;SDS011;14477;51.038;4.588;2023-03-19T06:55:32;5.10;;;2.40;;
26908;SDS011;14477;51.038;4.588;2023-03-19T06:57:58;4.30;;;2.47;;
26908;SDS011;14477;51.038;4.588;2023-03-19T07:00:23;4.57;;;2.22;;
26908;SDS011;14477;51.038;4.588;2023-03-19T07:02:49;4.07;;;2.30;;
26908;SDS011;14477;51.038;4.588;2023-03-19T07:05:15;4.40;;;2.22;;
26908;SDS011;14477;51.038;4.588;2023-03-19T07:07:40;4.70;;;2.40;;
26908;SDS011;14477;51.038;4.588;2023-03-19T07:10:06;4.43;;;2.47;;
26908;SDS011;14477;51.038;4.588;2023-03-19T07:12:32;4.40;;;2.30;;
26908;SDS011;14477;51.038;4.588;2023-03-19T07:14:58;4.67;;;2.40;;
26908;SDS011;14477;51.038;4.588;2023-03-19T07:17:25;4.80;;;2.40;;
26908;SDS011;14477;51.038;4.588;2023-03-19T07:19:51;4.70;;;2.50;;
26908;SDS011;14477;51.038;4.588;2023-03-19T07:22:17;4.53;;;2.47;;
26908;SDS011;14477;51.038;4.588;2023-03-19T07:24:43;5.75;;;2.90;;
26908;SDS011;14477;51.038;4.588;2023-03-19T07:27:09;5.05;;;2.88;;
26908;SDS011;14477;51.038;4.588;2023-03-19T07:29:35;6.40;;;3.25;;
26908;SDS011;14477;51.038;4.588;2023-03-19T07:32:01;5.77;;;3.00;;
26908;SDS011;14477;51.038;4.588;2023-03-19T07:34:27;6.00;;;3.30;;
26908;SDS011;14477;51.038;4.588;2023-03-19T07:36:52;5.67;;;3.30;;
26908;SDS011;14477;51.038;4.588;2023-03-19T07:39:18;5.43;;;3.30;;
26908;SDS011;14477;51.038;4.588;2023-03-19T07:41:44;5.78;;;3.25;;
26908;SDS011;14477;51.038;4.588;2023-03-19T07:44:12;5.82;;;3.33;;
26908;SDS011;14477;51.038;4.588;2023-03-19T07:46:39;5.83;;;3.00;;
26908;SDS011;14477;51.038;4.588;2023-03-19T07:49:05;6.63;;;3.28;;
26908;SDS011;14477;51.038;4.588;2023-03-19T07:51:31;4.63;;;2.67;;
26908;SDS011;14477;51.038;4.588;2023-03-19T07:53:57;6.22;;;3.00;;
26908;SDS011;14477;51.038;4.588;2023-03-19T07:56:23;4.47;;;2.40;;
26908;SDS011;14477;51.038;4.588;2023-03-19T07:58:49;4.90;;;2.13;;
26908;SDS011;14477;51.038;4.588;2023-03-19T08:01:16;4.07;;;2.35;;
26908;SDS011;14477;51.038;4.588;2023-03-19T08:03:42;5.20;;;2.47;;
26908;SDS011;14477;51.038;4.588;2023-03-19T08:06:08;3.35;;;2.15;;
26908;SDS011;14477;51.038;4.588;2023-03-19T08:08:34;5.67;;;2.50;;
26908;SDS011;14477;51.038;4.588;2023-03-19T08:11:00;3.88;;;1.95;;
26908;SDS011;14477;51.038;4.588;2023-03-19T08:13:27;6.03;;;2.03;;
26908;SDS011;14477;51.038;4.588;2023-03-19T08:15:53;4.75;;;2.08;;
26908;SDS011;14477;51.038;4.588;2023-03-19T08:18:20;5.93;;;2.27;;
26908;SDS011;14477;51.038;4.588;2023-03-19T08:20:46;4.07;;;2.10;;
26908;SDS011;14477;51.038;4.588;2023-03-19T08:23:12;4.50;;;1.95;;
26908;SDS011;14477;51.038;4.588;2023-03-19T08:25:38;3.17;;;1.95;;
26908;SDS011;14477;51.038;4.588;2023-03-19T08:28:04;3.60;;;1.70;;
26908;SDS011;14477;51.038;4.588;2023-03-19T08:30:30;4.07;;;2.00;;
26908;SDS011;14477;51.038;4.588;2023-03-19T08:32:56;5.28;;;2.15;;
26908;SDS011;14477;51.038;4.588;2023-03-19T08:35:22;4.40;;;1.90;;
26908;SDS011;14477;51.038;4.588;2023-03-19T08:37:48;4.43;;;1.95;;
26908;SDS011;14477;51.038;4.588;2023-03-19T08:40:13;4.07;;;1.83;;
26908;SDS011;14477;51.038;4.588;2023-03-19T08:42:39;4.50;;;1.80;;
26908;SDS011;14477;51.038;4.588;2023-03-19T08:45:10;4.78;;;1.77;;
26908;SDS011;14477;51.038;4.588;2023-03-19T08:47:37;4.63;;;1.95;;
26908;SDS011;14477;51.038;4.588;2023-03-19T08:50:03;7.03;;;1.95;;
26908;SDS011;14477;51.038;4.588;2023-03-19T08:52:30;4.13;;;1.80;;
26908;SDS011;14477;51.038;4.588;2023-03-19T08:54:56;5.97;;;1.80;;
26908;SDS011;14477;51.038;4.588;2023-03-19T08:57:21;4.53;;;1.67;;
26908;SDS011;14477;51.038;4.588;2023-03-19T08:59:47;4.23;;;1.53;;
26908;SDS011;14477;51.038;4.588;2023-03-19T09:02:13;4.53;;;1.70;;
26908;SDS011;14477;51.038;4.588;2023-03-19T09:04:39;5.20;;;1.70;;
26908;SDS011;14477;51.038;4.588;2023-03-19T09:07:05;4.13;;;1.65;;
26908;SDS011;14477;51.038;4.588;2023-03-19T09:09:31;4.23;;;1.77;;
26908;SDS011;14477;51.038;4.588;2023-03-19T09:11:57;5.15;;;1.63;;
26908;SDS011;14477;51.038;4.588;2023-03-19T09:14:23;3.75;;;1.60;;
26908;SDS011;14477;51.038;4.588;2023-03-19T09:16:48;4.27;;;1.30;;
26908;SDS011;14477;51.038;4.588;2023-03-19T09:19:14;2.73;;;1.50;;
26908;SDS011;14477;51.038;4.588;2023-03-19T09:21:40;4.53;;;1.70;;
26908;SDS011;14477;51.038;4.588;2023-03-19T09:24:06;3.38;;;1.65;;
26908;SDS011;14477;51.038;4.588;2023-03-19T09:26:32;3.97;;;1.50;;
26908;SDS011;14477;51.038;4.588;2023-03-19T09:28:57;3.58;;;1.50;;
26908;SDS011;14477;51.038;4.588;2023-03-19T09:31:23;3.67;;;1.40;;
26908;SDS011;14477;51.038;4.588;2023-03-19T09:33:49;4.32;;;1.60;;
26908;SDS011;14477;51.038;4.588;2023-03-19T09:36:15;4.10;;;1.50;;
26908;SDS011;14477;51.038;4.588;2023-03-19T09:38:41;2.83;;;1.63;;
26908;SDS011;14477;51.038;4.588;2023-03-19T09:41:12;3.60;;;1.40;;
26908;SDS011;14477;51.038;4.588;2023-03-19T09:44:01;5.10;;;1.38;;
26908;SDS011;14477;51.038;4.588;2023-03-19T09:54:26;4.20;;;1.77;;
26908;SDS011;14477;51.038;4.588;2023-03-19T09:56:57;3.10;;;1.80;;
26908;SDS011;14477;51.038;4.588;2023-03-19T09:59:24;3.35;;;1.55;;
26908;SDS011;14477;51.038;4.588;2023-03-19T10:01:53;4.65;;;1.80;;
26908;SDS011;14477;51.038;4.588;2023-03-19T10:10:48;4.83;;;1.97;;
26908;SDS011;14477;51.038;4.588;2023-03-19T10:16:04;3.90;;;1.92;;
26908;SDS011;14477;51.038;4.588;2023-03-19T10:18:36;3.72;;;1.70;;
26908;SDS011;14477;51.038;4.588;2023-03-19T10:21:08;5.25;;;2.00;;
26908;SDS011;14477;51.038;4.588;2023-03-19T10:26:16;5.00;;;2.00;;
26908;SDS011;14477;51.038;4.588;2023-03-19T10:28:44;3.70;;;1.92;;
26908;SDS011;14477;51.038;4.588;2023-03-19T10:37:05;3.20;;;1.70;;
26908;SDS011;14477;51.038;4.588;2023-03-19T10:39:37;4.97;;;2.15;;
26908;SDS011;14477;51.038;4.588;2023-03-19T10:42:15;3.47;;;2.05;;
26908;SDS011;14477;51.038;4.588;2023-03-19T10:44:51;4.75;;;1.95;;
26908;SDS011;14477;51.038;4.588;2023-03-19T10:47:25;4.93;;;1.80;;
26908;SDS011;14477;51.038;4.588;2023-03-19T10:49:51;3.83;;;1.90;;
26908;SDS011;14477;51.038;4.588;2023-03-19T10:52:26;3.95;;;1.73;;
26908;SDS011;14477;51.038;4.588;2023-03-19T10:54:55;4.47;;;1.70;;
26908;SDS011;14477;51.038;4.588;2023-03-19T10:57:27;3.15;;;1.80;;
26908;SDS011;14477;51.038;4.588;2023-03-19T10:59:55;4.18;;;2.20;;
26908;SDS011;14477;51.038;4.588;2023-03-19T11:02:29;4.43;;;2.00;;
26908;SDS011;14477;51.038;4.588;2023-03-19T11:05:41;6.00;;;2.15;;
26908;SDS011;14477;51.038;4.588;2023-03-19T11:07:42;4.70;;;2.13;;
26908;SDS011;14477;51.038;4.588;2023-03-19T11:10:11;4.20;;;2.30;;
26908;SDS011;14477;51.038;4.588;2023-03-19T11:12:45;4.53;;;2.30;;
26908;SDS011;14477;51.038;4.588;2023-03-19T11:15:20;5.00;;;2.20;;
26908;SDS011;14477;51.038;4.588;2023-03-19T11:17:48;7.50;;;2.45;;
26908;SDS011;14477;51.038;4.588;2023-03-19T11:20:37;6.35;;;2.30;;
26908;SDS011;14477;51.038;4.588;2023-03-19T11:23:10;5.53;;;2.07;;
26908;SDS011;14477;51.038;4.588;2023-03-19T11:25:40;4.20;;;2.17;;
26908;SDS011;14477;51.038;4.588;2023-03-19T11:28:12;5.13;;;2.30;;
26908;SDS011;14477;51.038;4.588;2023-03-19T11:36:13;4.07;;;2.10;;
26908;SDS011;14477;51.038;4.588;2023-03-19T11:41:48;5.32;;;2.90;;
26908;SDS011;14477;51.038;4.588;2023-03-19T11:44:39;5.40;;;3.58;;
26908;SDS011;14477;51.038;4.588;2023-03-19T11:52:52;5.40;;;3.28;;
26908;SDS011;14477;51.038;4.588;2023-03-19T11:55:42;8.48;;;4.05;;
26908;SDS011;14477;51.038;4.588;2023-03-19T12:01:09;6.82;;;4.20;;
26908;SDS011;14477;51.038;4.588;2023-03-19T12:06:33;9.30;;;5.05;;
26908;SDS011;14477;51.038;4.588;2023-03-19T12:15:12;6.57;;;4.32;;
26908;SDS011;14477;51.038;4.588;2023-03-19T12:18:04;7.10;;;4.03;;
26908;SDS011;14477;51.038;4.588;2023-03-19T12:20:42;6.45;;;4.03;;
26908;SDS011;14477;51.038;4.588;2023-03-19T12:26:13;6.03;;;3.97;;
26908;SDS011;14477;51.038;4.588;2023-03-19T12:28:48;7.07;;;4.20;;
26908;SDS011;14477;51.038;4.588;2023-03-19T12:42:46;6.53;;;3.78;;
26908;SDS011;14477;51.038;4.588;2023-03-19T12:48:08;6.15;;;3.53;;
26908;SDS011;14477;51.038;4.588;2023-03-19T12:50:41;6.40;;;3.80;;
26908;SDS011;14477;51.038;4.588;2023-03-19T12:53:17;7.20;;;3.92;;
26908;SDS011;14477;51.038;4.588;2023-03-19T12:56:34;7.22;;;3.88;;
26908;SDS011;14477;51.038;4.588;2023-03-19T13:01:48;5.63;;;3.30;;
26908;SDS011;14477;51.038;4.588;2023-03-19T13:04:21;6.13;;;3.67;;
26908;SDS011;14477;51.038;4.588;2023-03-19T13:07:01;6.10;;;3.70;;
26908;SDS011;14477;51.038;4.588;2023-03-19T13:15:16;6.25;;;3.47;;
26908;SDS011;14477;51.038;4.588;2023-03-19T13:20:42;6.43;;;3.60;;
26908;SDS011;14477;51.038;4.588;2023-03-19T13:23:17;7.05;;;3.45;;
26908;SDS011;14477;51.038;4.588;2023-03-19T13:25:53;7.43;;;3.40;;
26908;SDS011;14477;51.038;4.588;2023-03-19T13:28:25;5.75;;;3.30;;
26908;SDS011;14477;51.038;4.588;2023-03-19T13:33:25;5.53;;;3.33;;
26908;SDS011;14477;51.038;4.588;2023-03-19T13:35:52;4.97;;;3.30;;
26908;SDS011;14477;51.038;4.588;2023-03-19T13:38:27;4.53;;;2.90;;
26908;SDS011;14477;51.038;4.588;2023-03-19T13:41:04;4.28;;;2.85;;
26908;SDS011;14477;51.038;4.588;2023-03-19T13:43:53;4.45;;;2.72;;
26908;SDS011;14477;51.038;4.588;2023-03-19T13:56:34;4.20;;;3.05;;
26908;SDS011;14477;51.038;4.588;2023-03-19T14:02:43;4.82;;;3.30;;
26908;SDS011;14477;51.038;4.588;2023-03-19T14:07:34;4.75;;;3.30;;
26908;SDS011;14477;51.038;4.588;2023-03-19T14:10:07;4.93;;;3.33;;
26908;SDS011;14477;51.038;4.588;2023-03-19T14:12:44;3.77;;;2.73;;
26908;SDS011;14477;51.038;4.588;2023-03-19T14:15:20;3.40;;;2.70;;
26908;SDS011;14477;51.038;4.588;2023-03-19T14:17:55;3.80;;;2.50;;
26908;SDS011;14477;51.038;4.588;2023-03-19T14:20:33;4.10;;;2.65;;
26908;SDS011;14477;51.038;4.588;2023-03-19T14:25:53;4.67;;;3.37;;
26908;SDS011;14477;51.038;4.588;2023-03-19T14:31:24;4.03;;;2.72;;
26908;SDS011;14477;51.038;4.588;2023-03-19T14:36:30;3.53;;;2.70;;
26908;SDS011;14477;51.038;4.588;2023-03-19T14:39:00;4.57;;;2.72;;
26908;SDS011;14477;51.038;4.588;2023-03-19T14:41:32;4.28;;;2.70;;
26908;SDS011;14477;51.038;4.588;2023-03-19T14:52:58;6.65;;;3.55;;
26908;SDS011;14477;51.038;4.588;2023-03-19T14:55:38;6.10;;;3.67;;
26908;SDS011;14477;51.038;4.588;2023-03-19T14:58:08;6.60;;;4.50;;
26908;SDS011;14477;51.038;4.588;2023-03-19T15:00:37;7.83;;;4.90;;
26908;SDS011;14477;51.038;4.588;2023-03-19T15:03:09;6.57;;;4.90;;
26908;SDS011;14477;51.038;4.588;2023-03-19T15:05:56;7.05;;;4.72;;
26908;SDS011;14477;51.038;4.588;2023-03-19T15:08:24;6.43;;;4.90;;
26908;SDS011;14477;51.038;4.588;2023-03-19T15:19:10;7.20;;;4.97;;
26908;SDS011;14477;51.038;4.588;2023-03-19T15:21:37;6.63;;;5.18;;
26908;SDS011;14477;51.038;4.588;2023-03-19T15:24:03;5.80;;;4.40;;
26908;SDS011;14477;51.038;4.588;2023-03-19T15:26:32;6.32;;;4.82;;
26908;SDS011;14477;51.038;4.588;2023-03-19T15:28:59;6.13;;;4.85;;
26908;SDS011;14477;51.038;4.588;2023-03-19T15:31:44;7.57;;;5.25;;
26908;SDS011;14477;51.038;4.588;2023-03-19T15:34:19;6.57;;;4.85;;
26908;SDS011;14477;51.038;4.588;2023-03-19T15:36:47;6.27;;;4.17;;
26908;SDS011;14477;51.038;4.588;2023-03-19T15:39:25;6.28;;;4.50;;
26908;SDS011;14477;51.038;4.588;2023-03-19T15:41:55;5.57;;;4.38;;
26908;SDS011;14477;51.038;4.588;2023-03-19T15:44:27;6.25;;;4.38;;
26908;SDS011;14477;51.038;4.588;2023-03-19T15:47:18;5.13;;;3.80;;
26908;SDS011;14477;51.038;4.588;2023-03-19T15:49:52;4.53;;;3.40;;
26908;SDS011;14477;51.038;4.588;2023-03-19T15:52:22;5.07;;;3.40;;
26908;SDS011;14477;51.038;4.588;2023-03-19T15:54:50;4.65;;;3.55;;
26908;SDS011;14477;51.038;4.588;2023-03-19T15:57:18;4.65;;;3.47;;
26908;SDS011;14477;51.038;4.588;2023-03-19T15:59:44;5.72;;;3.75;;
26908;SDS011;14477;51.038;4.588;2023-03-19T16:02:28;5.53;;;3.50;;
26908;SDS011;14477;51.038;4.588;2023-03-19T16:04:55;5.40;;;3.20;;
26908;SDS011;14477;51.038;4.588;2023-03-19T16:09:59;5.00;;;3.13;;
26908;SDS011;14477;51.038;4.588;2023-03-19T16:12:48;4.97;;;2.75;;
26908;SDS011;14477;51.038;4.588;2023-03-19T16:20:45;5.10;;;2.63;;
26908;SDS011;14477;51.038;4.588;2023-03-19T16:23:22;3.42;;;2.30;;
26908;SDS011;14477;51.038;4.588;2023-03-19T16:26:01;4.18;;;2.22;;
26908;SDS011;14477;51.038;4.588;2023-03-19T16:28:42;4.33;;;2.63;;
26908;SDS011;14477;51.038;4.588;2023-03-19T16:31:18;5.43;;;3.20;;
26908;SDS011;14477;51.038;4.588;2023-03-19T16:33:53;5.15;;;2.97;;
26908;SDS011;14477;51.038;4.588;2023-03-19T16:36:20;5.47;;;2.90;;
26908;SDS011;14477;51.038;4.588;2023-03-19T16:38:54;4.28;;;2.70;;
26908;SDS011;14477;51.038;4.588;2023-03-19T16:41:29;5.37;;;2.83;;
26908;SDS011;14477;51.038;4.588;2023-03-19T16:44:15;7.00;;;3.10;;
26908;SDS011;14477;51.038;4.588;2023-03-19T16:46:42;5.95;;;2.72;;
26908;SDS011;14477;51.038;4.588;2023-03-19T16:49:08;4.53;;;2.75;;
26908;SDS011;14477;51.038;4.588;2023-03-19T16:51:34;5.33;;;3.00;;
26908;SDS011;14477;51.038;4.588;2023-03-19T16:54:00;4.33;;;2.77;;
26908;SDS011;14477;51.038;4.588;2023-03-19T16:56:26;4.13;;;2.65;;
26908;SDS011;14477;51.038;4.588;2023-03-19T16:58:53;4.88;;;2.83;;
26908;SDS011;14477;51.038;4.588;2023-03-19T17:01:20;5.27;;;2.97;;
26908;SDS011;14477;51.038;4.588;2023-03-19T17:03:47;6.53;;;3.40;;
26908;SDS011;14477;51.038;4.588;2023-03-19T17:06:14;5.97;;;3.22;;
26908;SDS011;14477;51.038;4.588;2023-03-19T17:08:40;4.80;;;2.83;;
26908;SDS011;14477;51.038;4.588;2023-03-19T17:11:09;6.72;;;3.40;;
26908;SDS011;14477;51.038;4.588;2023-03-19T17:13:55;4.97;;;3.08;;